Details From VIDP - Indira Gandhi Intl
To VNKT - Kathmandu Tribhuvan Intl
Flight Number -
Tags Decoded
Created
Modified
Stats Distance 487 nm / 902 km
Max Altitude 35,000 ft / 10,668 m
Waypoints 4
Social Downloads 3
Likes 0
Share VATSIM

Download

Looking for another format? Having issues loading an existing format? Contact us
Advertisement - Login to hide

Notes

Decoded

Route

VIDP LLK SMR VNKT

ID Type Via Altitude Latitude Longitude Leg Dist Tot Dist Heading (true) Name
O VIDP APT - 0 ft / 0 m 28.57049˚ 77.08804˚ - 0 nm - -
LLK VOR - 35,000 ft / 10,668 m 26.76220˚ 80.88047˚ 229 nm 229 nm 117° / 119° LUCKNOW VOR-DME
SMR VOR - 17,415 ft / 5,308 m 27.16417˚ 84.98222˚ 220 nm 449 nm 83° / 85° SIMARA VOR-DME
O VNKT APT - 0 ft / 0 m 27.68381˚ 85.35342˚ 36 nm 486 nm 32° / 32° -

Altitude Profile

Advertisement - Login to hide

Weather


0- 5 10 15 20 25 30 35+ Temperature / ° C

Clouds and Precipitation
Forecast for 2018-05-25 06:00 UTC. Updated 2 hours ago

Ground ~20,000 ft ~40,000 ft Winds

VIDP

Details ICAO VIDP (DEL)
Name INDIRA GANDHI INTL
Region India
Timezone Asia/Kolkata (UTC+5.5)
Stats Elevation 777 ft / 237 m (AMSL)
Location 28.566496° 77.103090°
Runways 2
Magnetic Variation 1.243° E

METAR

VIDP 250700Z 34009KT 5000 HZ NSC 44/02 Q1003 NOSIG

Decode

TAF

TAF VIDP 250500Z 2506/2612 33006KT 3000 DU NSC BECMG 2508/2510 5000 DU HZ FEW100 BECMG 2522/2524 29004KT 2500 HZ BECMG 2604/2606 27008KT 3000 HZ DU SCT100 BECMG 2608/2610 5000 HZ

Decode

Departure Runways

ID Width Length Bearing (true) Bearing (mag) Surface Threshold Offset Overrun Length
09 150 ft / 46 m 9,270 ft / 2,826 m 91.50° 90.26° Asphalt 0 ft / 0 m 195 ft / 59 m
10 150 ft / 46 m 12,488 ft / 3,807 m 104.67° 103.43° Asphalt 0 ft / 0 m 880 ft / 268 m
27 150 ft / 46 m 9,270 ft / 2,826 m 271.52° 270.28° Asphalt 499 ft / 152 m 0 ft / 0 m
28 150 ft / 46 m 12,488 ft / 3,807 m 284.69° 283.45° Asphalt 0 ft / 0 m 470 ft / 143 m

VNKT

Details ICAO VNKT (KTM)
Name Kathmandu Tribhuvan Intl
Region Nepal
Timezone Asia/Kathmandu (UTC+5.8)
Stats Elevation 4,390 ft / 1,338 m (AMSL)
Location 27.696583° 85.359100°
Runways 1
Magnetic Variation 0.514° E

METAR

VNKT 250720Z 31009KT 270V350 8000 FEW020 30/15 Q1011 NOSIG

Decode

TAF

TAF VNKT 250500Z 2506/2606 17004KT 7000 FEW015 SCT030 BECMG 2507/2508 24008KT 8000 FEW020 SCT100 PROB30 2508/2514 28012KT 5000 -TSRA FEW025CB SCT030 BKN100 BECMG 2514/2515 16004KT 6000 FEW015 BECMG 2600/2602 VRB02KT 4000 BR FEW010 SCT100 BECMG 2604/2605 16004KT 6000 FEW015

Decode

Destination Runways

ID Width Length Bearing (true) Bearing (mag) Surface Threshold Offset Overrun Length
02 148 ft / 45 m 10,017 ft / 3,053 m 21.50° 20.99° Asphalt 0 ft / 0 m 0 ft / 0 m
20 148 ft / 45 m 10,017 ft / 3,053 m 201.51° 201.00° Asphalt 400 ft / 122 m 0 ft / 0 m

Popular Alternatives